Bookmark and Share
Track history (hours):
 

Nautilus Survey

Last reported at 2014-Apr-11 13:33 UTC. Time now 2014-Apr-23 07:11 UTC.
Position N 66°16' E 012°22'.
Warning: this ship's position is 11 days out of date.

Length 23 m; draft 2 m.

Type: Dredging. MMSI: 259464000.

NotesDate/timePositionNaut miles runAvg speedWind from/ knotsBaromVisibWave heightAir tempDewpointWater temp
2014-Apr-11 13:33N 66°16' E 012°22'6 5.9
2014-Apr-11 12:34N 66°22' E 012°22'0 0.1
2014-Apr-11 11:34N 66°22' E 012°23'0 0.0
2014-Apr-11 10:33N 66°22' E 012°22'4 4.3
2014-Apr-11 09:33N 66°18' E 012°22'  
2014-Apr-02 07:31N 66°20' E 012°57'4 3.2
2014-Apr-02 06:08N 66°24' E 012°57'0 0.3
2014-Apr-02 05:32N 66°25' E 012°57'0 0.0
2014-Apr-02 04:32N 66°25' E 012°57'0 0.0
2014-Apr-02 03:33N 66°25' E 012°57'0 0.0
2014-Apr-02 02:33N 66°25' E 012°57'0 0.0
2014-Apr-02 01:33N 66°25' E 012°57'0 0.0
2014-Apr-02 00:33N 66°25' E 012°57'0 0.0
2014-Apr-01 23:33N 66°25' E 012°57'0 0.0
2014-Apr-01 22:30N 66°25' E 012°57'0 0.0
2014-Apr-01 21:33N 66°25' E 012°57'0 0.0
2014-Apr-01 20:33N 66°25' E 012°57'0 0.0
2014-Apr-01 19:32N 66°25' E 012°57'0 0.0
2014-Apr-01 18:33N 66°25' E 012°57'0 0.0
2014-Apr-01 17:32N 66°25' E 012°57'5 4.3
2014-Apr-01 16:30N 66°26' E 013°08'0 0.2
2014-Apr-01 15:33N 66°27' E 013°08'0 0.2
2014-Apr-01 14:32N 66°26' E 013°07'  

Dump ship's entire track history

sailing weather and tide predictions

Nautilus Survey — LIXR — position and weather